Time;durP1;ratioP1;P1;durP2;ratioP2;P2;SDS_P1;SDS_P2;PMS_P1;PMS_P2;Temp;Humidity;BMP_temperature;BMP_pressure;BME280_temperature;BME280_humidity;BME280_pressure;Samples;Min_cycle;Max_cycle;Signal;HPM_P1;HPM_P2
2022/03/09 00:00:16;;;;;;;1.83;1.38;;;;;;;;;;5073781;28;20469;-49
2022/03/09 00:02:42;;;;;;;2.40;1.83;;;;;;;;;;5072969;28;20043;-51
2022/03/09 00:05:08;;;;;;;2.25;1.30;;;;;;;;;;5073770;28;20025;-49
2022/03/09 00:07:34;;;;;;;1.75;1.20;;;;;;;;;;5073711;28;20047;-52
2022/03/09 00:10:01;;;;;;;1.40;1.20;;;;;;;;;;5054950;28;20024;-50
2022/03/09 00:12:27;;;;;;;1.85;1.30;;;;;;;;;;5072810;28;20527;-49
2022/03/09 00:14:53;;;;;;;1.60;1.23;;;;;;;;;;5072313;28;20439;-49
2022/03/09 00:17:19;;;;;;;2.20;1.38;;;;;;;;;;5073534;28;20389;-48
2022/03/09 00:19:45;;;;;;;1.77;1.30;;;;;;;;;;5072523;28;20021;-49
2022/03/09 00:22:11;;;;;;;1.90;1.40;;;;;;;;;;5073261;28;20040;-51
2022/03/09 00:24:37;;;;;;;2.65;1.52;;;;;;;;;;5072955;28;20141;-46
2022/03/09 00:27:03;;;;;;;2.30;1.08;;;;;;;;;;5072903;28;20033;-52
2022/03/09 00:29:29;;;;;;;2.15;1.23;;;;;;;;;;5072816;28;20493;-48
2022/03/09 00:31:55;;;;;;;2.42;1.33;;;;;;;;;;5072372;28;20032;-49
2022/03/09 00:34:21;;;;;;;1.98;1.48;;;;;;;;;;5073246;28;20025;-53
2022/03/09 00:36:47;;;;;;;3.15;2.30;;;;;;;;;;5072117;28;20021;-53
2022/03/09 00:39:13;;;;;;;2.05;1.40;;;;;;;;;;5072582;28;20498;-55
2022/03/09 00:41:39;;;;;;;1.98;1.40;;;;;;;;;;5072345;28;20025;-46
2022/03/09 00:44:05;;;;;;;2.20;1.40;;;;;;;;;;5079956;28;20024;-48
2022/03/09 00:46:32;;;;;;;1.88;1.23;;;;;;;;;;5093085;28;20108;-47
2022/03/09 00:48:58;;;;;;;2.17;1.60;;;;;;;;;;5092010;28;20020;-49
2022/03/09 00:51:24;;;;;;;2.22;1.27;;;;;;;;;;5092477;28;20043;-52
2022/03/09 00:53:50;;;;;;;2.05;1.65;;;;;;;;;;5092094;28;20028;-47
2022/03/09 00:56:18;;;;;;;3.03;1.30;;;;;;;;;;5092670;28;20469;-49
2022/03/09 00:58:44;;;;;;;2.67;1.35;;;;;;;;;;5091816;28;20024;-49
2022/03/09 01:01:12;;;;;;;1.75;1.30;;;;;;;;;;5093522;28;20024;-50
2022/03/09 01:03:38;;;;;;;1.95;1.40;;;;;;;;;;5093224;28;20031;-45
2022/03/09 01:06:04;;;;;;;2.15;1.67;;;;;;;;;;5092775;28;20016;-48
2022/03/09 01:08:30;;;;;;;3.17;1.70;;;;;;;;;;5092212;28;20031;-47
2022/03/09 01:10:57;;;;;;;2.00;1.25;;;;;;;;;;5091879;28;20052;-47
2022/03/09 01:13:23;;;;;;;2.78;2.00;;;;;;;;;;5093019;28;20115;-49
2022/03/09 01:15:49;;;;;;;2.08;1.52;;;;;;;;;;5091451;28;20077;-49
2022/03/09 01:18:16;;;;;;;1.83;1.30;;;;;;;;;;5092606;28;20081;-52
2022/03/09 01:20:41;;;;;;;2.38;1.73;;;;;;;;;;5091712;28;20042;-47
2022/03/09 01:23:08;;;;;;;2.13;1.48;;;;;;;;;;5091623;28;20560;-49
2022/03/09 01:25:34;;;;;;;1.83;1.40;;;;;;;;;;5092407;28;20024;-50
2022/03/09 01:28:00;;;;;;;2.53;1.90;;;;;;;;;;5091699;28;20034;-48
2022/03/09 01:30:26;;;;;;;3.17;1.48;;;;;;;;;;5092309;28;20023;-51
2022/03/09 01:32:52;;;;;;;2.35;1.50;;;;;;;;;;5091203;28;20404;-51
2022/03/09 01:35:19;;;;;;;2.33;1.23;;;;;;;;;;5092267;28;20024;-47
2022/03/09 01:37:46;;;;;;;2.22;1.98;;;;;;;;;;5091246;28;20106;-49
2022/03/09 01:40:12;;;;;;;1.88;1.27;;;;;;;;;;5092115;28;20028;-50
2022/03/09 01:42:38;;;;;;;2.08;1.60;;;;;;;;;;5091869;28;20107;-50
2022/03/09 01:45:05;;;;;;;1.92;1.45;;;;;;;;;;5075839;28;20033;-48
2022/03/09 01:47:31;;;;;;;2.17;1.42;;;;;;;;;;5071945;28;20048;-48
2022/03/09 01:49:57;;;;;;;2.28;1.27;;;;;;;;;;5053034;28;20036;-53
2022/03/09 01:52:24;;;;;;;2.13;1.75;;;;;;;;;;5071738;28;20526;-49
2022/03/09 01:54:52;;;;;;;2.03;1.40;;;;;;;;;;5053037;28;20025;-48
2022/03/09 01:57:19;;;;;;;1.40;1.20;;;;;;;;;;5071287;28;20416;-49
2022/03/09 01:59:48;;;;;;;2.33;1.60;;;;;;;;;;5070414;28;20103;-50
2022/03/09 02:02:14;;;;;;;2.15;1.30;;;;;;;;;;5071779;28;20029;-52
2022/03/09 02:04:40;;;;;;;1.90;1.27;;;;;;;;;;5071776;28;20466;-47
2022/03/09 02:07:10;;;;;;;2.92;1.67;;;;;;;;;;5071310;28;20099;-48
2022/03/09 02:09:43;;;;;;;1.67;1.58;;;;;;;;;;5071571;28;20037;-50
2022/03/09 02:12:16;;;;;;;1.88;1.02;;;;;;;;;;5071809;28;20077;-52
2022/03/09 02:14:43;;;;;;;1.65;1.20;;;;;;;;;;5071285;28;20043;-48
2022/03/09 02:17:12;;;;;;;1.77;1.48;;;;;;;;;;5071670;28;20052;-52
2022/03/09 02:19:40;;;;;;;2.67;1.33;;;;;;;;;;5071701;28;20025;-48
2022/03/09 02:22:24;;;;;;;1.67;1.10;;;;;;;;;;5071055;28;20024;-51
2022/03/09 02:24:51;;;;;;;2.38;1.60;;;;;;;;;;5070716;28;20032;-49
2022/03/09 02:27:20;;;;;;;1.98;1.38;;;;;;;;;;5071466;28;20025;-50
2022/03/09 02:29:47;;;;;;;2.25;1.75;;;;;;;;;;5070478;28;20035;-49
2022/03/09 02:32:13;;;;;;;2.08;1.42;;;;;;;;;;5071124;28;20024;-52
2022/03/09 02:34:39;;;;;;;2.10;1.65;;;;;;;;;;5073454;28;20034;-52
2022/03/09 02:37:05;;;;;;;2.20;1.63;;;;;;;;;;5081850;28;20515;-50
2022/03/09 02:39:31;;;;;;;2.85;1.50;;;;;;;;;;5083288;28;20028;-48
2022/03/09 02:41:57;;;;;;;1.63;1.10;;;;;;;;;;5084509;28;20029;-51
2022/03/09 02:44:23;;;;;;;1.92;1.40;;;;;;;;;;5083163;28;20028;-49
2022/03/09 02:46:50;;;;;;;1.92;1.45;;;;;;;;;;5081823;28;20021;-52
2022/03/09 02:49:16;;;;;;;1.48;1.15;;;;;;;;;;5084139;28;20031;-49
2022/03/09 02:51:42;;;;;;;2.92;1.50;;;;;;;;;;5083822;28;20017;-46
2022/03/09 02:54:08;;;;;;;2.10;1.55;;;;;;;;;;5064121;28;20366;-46
2022/03/09 02:56:34;;;;;;;2.35;1.50;;;;;;;;;;5084593;28;20024;-47
2022/03/09 02:59:01;;;;;;;1.83;1.30;;;;;;;;;;5083269;28;20078;-48
2022/03/09 03:01:26;;;;;;;1.85;1.27;;;;;;;;;;5082789;28;20020;-48
2022/03/09 03:03:52;;;;;;;2.08;1.40;;;;;;;;;;5087437;28;20362;-49
2022/03/09 03:06:18;;;;;;;1.95;1.50;;;;;;;;;;5094582;28;20025;-47
2022/03/09 03:08:44;;;;;;;3.22;1.95;;;;;;;;;;5094547;28;20032;-46
2022/03/09 03:11:11;;;;;;;2.97;1.63;;;;;;;;;;5094560;28;20362;-49
2022/03/09 03:13:38;;;;;;;2.40;1.48;;;;;;;;;;5087763;28;20021;-48
2022/03/09 03:16:04;;;;;;;2.08;1.38;;;;;;;;;;5081383;28;20075;-48
2022/03/09 03:18:30;;;;;;;1.58;1.25;;;;;;;;;;5084035;28;20055;-48
2022/03/09 03:20:56;;;;;;;1.70;1.13;;;;;;;;;;5081829;28;20176;-47
2022/03/09 03:23:22;;;;;;;2.28;1.30;;;;;;;;;;5082248;28;20111;-49
2022/03/09 03:25:49;;;;;;;1.90;1.63;;;;;;;;;;5083779;28;20016;-48
2022/03/09 03:28:15;;;;;;;2.63;1.50;;;;;;;;;;5085459;28;20435;-51
2022/03/09 03:30:41;;;;;;;2.45;2.00;;;;;;;;;;5082075;28;20023;-50
2022/03/09 03:33:07;;;;;;;2.00;1.35;;;;;;;;;;5082694;28;20094;-49
2022/03/09 03:35:33;;;;;;;1.83;1.05;;;;;;;;;;5082977;28;20466;-49
2022/03/09 03:37:59;;;;;;;1.98;1.52;;;;;;;;;;5093582;28;20027;-48
2022/03/09 03:40:25;;;;;;;2.92;1.75;;;;;;;;;;5095048;28;20028;-51
2022/03/09 03:42:51;;;;;;;2.78;1.33;;;;;;;;;;5093542;28;20077;-51
2022/03/09 03:45:17;;;;;;;2.28;1.50;;;;;;;;;;5076602;28;20028;-50
2022/03/09 03:47:43;;;;;;;2.05;1.33;;;;;;;;;;5073483;28;20035;-46
2022/03/09 03:50:09;;;;;;;2.03;1.83;;;;;;;;;;5073967;28;20028;-51
2022/03/09 03:52:35;;;;;;;2.58;1.73;;;;;;;;;;5073792;28;20374;-51
2022/03/09 03:55:01;;;;;;;1.60;1.30;;;;;;;;;;5072716;28;20124;-50
2022/03/09 03:57:27;;;;;;;1.60;1.27;;;;;;;;;;5073812;28;20029;-50
2022/03/09 03:59:53;;;;;;;1.83;1.33;;;;;;;;;;5073097;28;20054;-49
2022/03/09 04:02:19;;;;;;;2.33;1.50;;;;;;;;;;5073719;28;20021;-47
2022/03/09 04:04:45;;;;;;;2.13;1.23;;;;;;;;;;5072983;28;20028;-45
2022/03/09 04:07:11;;;;;;;2.20;1.60;;;;;;;;;;5073721;28;20024;-50
2022/03/09 04:09:37;;;;;;;1.77;1.40;;;;;;;;;;5073592;28;20033;-52
2022/03/09 04:12:04;;;;;;;2.38;1.20;;;;;;;;;;5072380;28;20025;-47
2022/03/09 04:14:30;;;;;;;1.80;1.50;;;;;;;;;;5073488;28;20517;-48
2022/03/09 04:16:56;;;;;;;2.65;1.55;;;;;;;;;;5072566;28;20062;-52
2022/03/09 04:19:22;;;;;;;1.70;1.10;;;;;;;;;;5073762;28;20115;-48
2022/03/09 04:21:48;;;;;;;2.03;1.27;;;;;;;;;;5054730;28;20032;-50
2022/03/09 04:24:14;;;;;;;2.65;1.50;;;;;;;;;;5073117;28;20050;-53
2022/03/09 04:26:40;;;;;;;1.45;1.20;;;;;;;;;;5073087;28;20474;-48
2022/03/09 04:29:06;;;;;;;2.50;1.45;;;;;;;;;;5072363;28;20030;-48
2022/03/09 04:31:32;;;;;;;2.22;1.45;;;;;;;;;;5073237;28;20048;-51
2022/03/09 04:33:58;;;;;;;2.25;1.30;;;;;;;;;;5072372;28;20531;-50
2022/03/09 04:36:24;;;;;;;2.25;1.42;;;;;;;;;;5073150;28;20440;-48
2022/03/09 04:38:50;;;;;;;2.45;1.70;;;;;;;;;;5071860;28;20051;-46
2022/03/09 04:41:16;;;;;;;2.40;1.83;;;;;;;;;;5072514;28;20123;-48
2022/03/09 04:43:42;;;;;;;2.80;1.67;;;;;;;;;;5076961;28;20476;-46
2022/03/09 04:46:08;;;;;;;1.63;1.17;;;;;;;;;;5092379;28;20040;-47
2022/03/09 04:48:34;;;;;;;2.25;1.63;;;;;;;;;;5093077;28;20060;-46
2022/03/09 04:51:02;;;;;;;2.65;1.50;;;;;;;;;;5092183;28;20051;-46
2022/03/09 04:53:28;;;;;;;3.22;1.73;;;;;;;;;;5092919;28;20107;-49
2022/03/09 04:55:55;;;;;;;2.47;1.40;;;;;;;;;;5092145;28;20032;-49
2022/03/09 04:58:21;;;;;;;2.95;1.60;;;;;;;;;;5091718;28;20076;-53
2022/03/09 05:00:47;;;;;;;2.33;1.98;;;;;;;;;;5092362;28;20016;-46
2022/03/09 05:03:13;;;;;;;2.85;1.52;;;;;;;;;;5092569;28;20027;-49
2022/03/09 05:05:39;;;;;;;2.80;1.45;;;;;;;;;;5092554;28;20363;-49
2022/03/09 05:08:05;;;;;;;1.80;1.45;;;;;;;;;;5091821;28;20214;-49
2022/03/09 05:10:31;;;;;;;3.20;1.80;;;;;;;;;;5092997;28;20023;-49
2022/03/09 05:12:57;;;;;;;2.45;1.90;;;;;;;;;;5091621;28;20099;-52
2022/03/09 05:15:23;;;;;;;2.53;1.73;;;;;;;;;;5092091;28;20088;-47
2022/03/09 05:17:49;;;;;;;2.90;1.83;;;;;;;;;;5091879;28;20449;-48
2022/03/09 05:20:19;;;;;;;2.63;1.40;;;;;;;;;;5092889;28;20030;-48
2022/03/09 05:22:45;;;;;;;2.50;1.65;;;;;;;;;;5092310;28;20020;-45
2022/03/09 05:25:11;;;;;;;3.03;2.05;;;;;;;;;;5092019;28;20476;-57
2022/03/09 05:27:38;;;;;;;2.58;1.50;;;;;;;;;;5092232;28;20107;-47
2022/03/09 05:30:04;;;;;;;2.95;1.70;;;;;;;;;;5091518;28;20043;-49
2022/03/09 05:32:30;;;;;;;2.75;1.75;;;;;;;;;;5092674;28;20086;-52
2022/03/09 05:34:56;;;;;;;2.45;1.58;;;;;;;;;;5091179;28;20016;-50
2022/03/09 05:37:23;;;;;;;2.47;1.67;;;;;;;;;;5074545;28;20032;-49
2022/03/09 05:39:49;;;;;;;1.88;1.30;;;;;;;;;;5091374;28;20380;-45
2022/03/09 05:42:15;;;;;;;2.42;1.80;;;;;;;;;;5092266;28;20103;-50
2022/03/09 05:44:41;;;;;;;2.15;1.50;;;;;;;;;;5079731;28;20028;-47
2022/03/09 05:47:08;;;;;;;3.78;1.52;;;;;;;;;;5071082;28;20043;-51
2022/03/09 05:49:34;;;;;;;2.30;1.80;;;;;;;;;;5071786;28;20490;-50
2022/03/09 05:52:00;;;;;;;2.03;1.25;;;;;;;;;;5071174;28;20031;-48
2022/03/09 05:54:26;;;;;;;2.47;1.77;;;;;;;;;;5071680;28;20020;-47
2022/03/09 05:56:52;;;;;;;2.28;1.52;;;;;;;;;;5071206;28;20025;-47
2022/03/09 05:59:18;;;;;;;2.35;1.80;;;;;;;;;;5071544;28;20024;-50
2022/03/09 06:01:44;;;;;;;2.22;1.70;;;;;;;;;;5071802;28;20450;-48
2022/03/09 06:04:10;;;;;;;1.90;1.63;;;;;;;;;;5070916;28;20017;-49
2022/03/09 06:06:36;;;;;;;3.35;1.60;;;;;;;;;;5071571;28;20442;-49
2022/03/09 06:09:02;;;;;;;4.13;2.22;;;;;;;;;;5071732;28;20050;-49
2022/03/09 06:11:28;;;;;;;2.45;1.58;;;;;;;;;;5076205;28;20017;-49
2022/03/09 06:13:54;;;;;;;2.65;1.70;;;;;;;;;;5074783;28;20472;-47
2022/03/09 06:16:20;;;;;;;3.80;2.25;;;;;;;;;;5075398;28;20048;-54
2022/03/09 06:18:46;;;;;;;2.70;1.75;;;;;;;;;;5075368;28;20420;-49
2022/03/09 06:21:13;;;;;;;2.88;1.80;;;;;;;;;;5074744;28;20037;-49
2022/03/09 06:23:39;;;;;;;5.72;1.60;;;;;;;;;;5075477;28;20013;-52
2022/03/09 06:26:05;;;;;;;3.70;1.98;;;;;;;;;;5074897;28;20165;-49
2022/03/09 06:28:32;;;;;;;1.80;1.50;;;;;;;;;;5075242;28;20389;-51
2022/03/09 06:30:58;;;;;;;3.47;2.05;;;;;;;;;;5074488;28;20020;-51
2022/03/09 06:33:24;;;;;;;3.88;2.33;;;;;;;;;;5075275;28;20020;-50
2022/03/09 06:35:50;;;;;;;2.95;1.33;;;;;;;;;;5075323;28;20035;-46
2022/03/09 06:38:16;;;;;;;2.03;1.58;;;;;;;;;;5074979;28;20024;-47
2022/03/09 06:40:43;;;;;;;2.15;1.70;;;;;;;;;;5075654;28;20024;-51
2022/03/09 06:43:09;;;;;;;2.03;1.50;;;;;;;;;;5074471;28;20047;-49
2022/03/09 06:45:35;;;;;;;3.67;2.28;;;;;;;;;;5095037;28;20024;-52
2022/03/09 06:48:01;;;;;;;2.28;1.63;;;;;;;;;;5094520;28;20032;-51
2022/03/09 06:50:27;;;;;;;4.72;2.15;;;;;;;;;;5095380;28;20043;-49
2022/03/09 06:52:53;;;;;;;3.60;1.92;;;;;;;;;;5094419;28;20368;-50
2022/03/09 06:55:20;;;;;;;2.53;1.52;;;;;;;;;;5095173;28;20026;-48
2022/03/09 06:57:46;;;;;;;3.33;1.90;;;;;;;;;;5094949;28;20084;-50
2022/03/09 07:00:14;;;;;;;2.38;1.55;;;;;;;;;;5094176;28;20020;-49
2022/03/09 07:02:40;;;;;;;3.42;2.08;;;;;;;;;;5073469;28;20019;-49
2022/03/09 07:05:07;;;;;;;4.00;1.75;;;;;;;;;;5074932;28;20034;-47
2022/03/09 07:07:33;;;;;;;2.70;1.90;;;;;;;;;;5074945;28;20028;-48
2022/03/09 07:09:59;;;;;;;4.43;2.00;;;;;;;;;;5073544;28;20021;-48
2022/03/09 07:12:25;;;;;;;3.80;1.55;;;;;;;;;;5074866;28;20029;-48
2022/03/09 07:14:51;;;;;;;3.80;1.80;;;;;;;;;;5074049;28;20028;-50
2022/03/09 07:17:18;;;;;;;4.40;2.08;;;;;;;;;;5074331;28;20048;-48
2022/03/09 07:19:44;;;;;;;3.15;2.08;;;;;;;;;;5074459;28;20458;-49
2022/03/09 07:22:10;;;;;;;3.70;1.90;;;;;;;;;;5072784;28;20627;-48
2022/03/09 07:24:37;;;;;;;2.65;1.80;;;;;;;;;;5073739;28;20028;-49
2022/03/09 07:27:03;;;;;;;2.70;2.03;;;;;;;;;;5073746;28;20090;-49
2022/03/09 07:29:29;;;;;;;2.95;1.73;;;;;;;;;;5074054;28;20032;-47
2022/03/09 07:31:55;;;;;;;4.05;1.80;;;;;;;;;;5073186;28;20020;-49
2022/03/09 07:34:26;;;;;;;3.67;1.50;;;;;;;;;;5074265;28;20078;-50
2022/03/09 07:36:53;;;;;;;4.25;1.90;;;;;;;;;;5074052;28;20048;-49
2022/03/09 07:39:20;;;;;;;4.60;2.05;;;;;;;;;;5073533;28;20522;-45
2022/03/09 07:41:46;;;;;;;3.28;2.47;;;;;;;;;;5074085;28;20040;-54
2022/03/09 07:44:12;;;;;;;4.65;2.40;;;;;;;;;;5081236;28;20100;-48
2022/03/09 07:46:38;;;;;;;4.57;2.13;;;;;;;;;;5093681;28;20095;-50
2022/03/09 07:49:04;;;;;;;4.55;2.13;;;;;;;;;;5092668;28;20028;-51
2022/03/09 07:51:30;;;;;;;4.53;2.90;;;;;;;;;;5084317;28;20016;-49
2022/03/09 07:53:56;;;;;;;3.85;2.30;;;;;;;;;;5083192;28;20031;-47
2022/03/09 07:56:22;;;;;;;5.03;2.15;;;;;;;;;;5093879;28;20095;-53
2022/03/09 07:58:48;;;;;;;4.95;2.05;;;;;;;;;;5093890;28;20030;-48
2022/03/09 08:01:14;;;;;;;4.95;2.08;;;;;;;;;;5086217;28;20103;-49
2022/03/09 08:03:40;;;;;;;3.72;2.05;;;;;;;;;;5078408;28;20030;-48
2022/03/09 08:06:06;;;;;;;3.47;2.08;;;;;;;;;;5092680;28;20020;-50
2022/03/09 08:08:32;;;;;;;4.32;1.75;;;;;;;;;;5093848;28;20036;-52
2022/03/09 08:10:58;;;;;;;4.97;2.92;;;;;;;;;;5092810;28;20020;-49
2022/03/09 08:13:24;;;;;;;5.35;2.28;;;;;;;;;;5093691;28;20020;-49
2022/03/09 08:15:50;;;;;;;4.30;2.53;;;;;;;;;;5093382;28;20052;-51
2022/03/09 08:18:16;;;;;;;9.75;2.92;;;;;;;;;;5092541;28;20629;-48
2022/03/09 08:20:42;;;;;;;5.72;2.42;;;;;;;;;;5075224;28;20465;-52
2022/03/09 08:23:08;;;;;;;3.45;2.30;;;;;;;;;;5092631;28;20450;-53
2022/03/09 08:25:34;;;;;;;2.55;2.10;;;;;;;;;;5093267;28;20020;-50
2022/03/09 08:28:01;;;;;;;4.55;1.88;;;;;;;;;;5092397;28;20020;-52
2022/03/09 08:30:27;;;;;;;6.20;2.72;;;;;;;;;;5093267;28;20038;-52
2022/03/09 08:32:53;;;;;;;2.50;1.77;;;;;;;;;;5092675;28;20107;-51
2022/03/09 08:35:19;;;;;;;3.97;2.63;;;;;;;;;;5092480;28;20028;-48
2022/03/09 08:37:45;;;;;;;4.53;2.83;;;;;;;;;;5092978;28;20028;-51
2022/03/09 08:40:12;;;;;;;4.80;2.30;;;;;;;;;;5092241;28;20035;-50
2022/03/09 08:42:38;;;;;;;3.90;2.00;;;;;;;;;;5093015;28;20093;-49
2022/03/09 08:45:05;;;;;;;3.83;2.10;;;;;;;;;;5076048;28;20021;-51
2022/03/09 08:47:30;;;;;;;5.65;2.53;;;;;;;;;;5054251;28;20028;-49
2022/03/09 08:49:57;;;;;;;4.18;1.85;;;;;;;;;;5067478;28;20029;-48
2022/03/09 08:52:23;;;;;;;3.78;2.35;;;;;;;;;;5073319;28;20024;-51
2022/03/09 08:54:53;;;;;;;3.83;2.17;;;;;;;;;;5072832;28;20473;-51
2022/03/09 08:57:20;;;;;;;3.72;2.35;;;;;;;;;;5071782;28;20024;-48
2022/03/09 08:59:46;;;;;;;5.40;2.25;;;;;;;;;;5072216;28;20420;-52
2022/03/09 09:02:12;;;;;;;3.67;2.70;;;;;;;;;;5071228;28;20051;-53
2022/03/09 09:04:38;;;;;;;3.70;2.40;;;;;;;;;;5072418;28;20377;-49
2022/03/09 09:07:06;;;;;;;3.42;2.00;;;;;;;;;;5071627;28;20024;-48
2022/03/09 09:09:32;;;;;;;4.07;1.77;;;;;;;;;;5071728;28;20115;-51
2022/03/09 09:11:59;;;;;;;5.22;2.10;;;;;;;;;;5071464;28;20374;-49
2022/03/09 09:14:26;;;;;;;3.05;1.75;;;;;;;;;;5072186;28;20025;-49
2022/03/09 09:16:52;;;;;;;4.88;2.00;;;;;;;;;;5071510;28;20552;-48
2022/03/09 09:19:18;;;;;;;3.35;2.13;;;;;;;;;;5071348;28;20028;-50
2022/03/09 09:21:45;;;;;;;3.65;1.95;;;;;;;;;;5071821;28;20024;-49
2022/03/09 09:24:11;;;;;;;3.78;2.17;;;;;;;;;;5071246;28;20021;-50
2022/03/09 09:26:37;;;;;;;3.47;1.90;;;;;;;;;;5071673;28;20055;-48
2022/03/09 09:29:03;;;;;;;2.13;1.55;;;;;;;;;;5070980;28;20422;-50
2022/03/09 09:31:29;;;;;;;3.75;1.88;;;;;;;;;;5071666;28;20024;-50
2022/03/09 09:33:55;;;;;;;4.68;2.38;;;;;;;;;;5071706;28;20063;-49
2022/03/09 09:36:21;;;;;;;3.78;2.10;;;;;;;;;;5070875;28;20048;-48
2022/03/09 09:38:48;;;;;;;3.50;1.77;;;;;;;;;;5071777;28;20032;-51
2022/03/09 09:41:18;;;;;;;3.03;1.80;;;;;;;;;;5071216;28;20024;-48
2022/03/09 09:43:44;;;;;;;2.83;1.88;;;;;;;;;;5075631;28;20491;-51
2022/03/09 09:46:15;;;;;;;3.47;1.80;;;;;;;;;;5073112;28;20358;-48
2022/03/09 09:48:41;;;;;;;5.13;2.15;;;;;;;;;;5091628;28;20043;-49
2022/03/09 09:51:08;;;;;;;2.78;1.70;;;;;;;;;;5090969;28;20361;-50
2022/03/09 09:53:35;;;;;;;5.28;2.30;;;;;;;;;;5091508;28;20213;-51
2022/03/09 09:56:02;;;;;;;2.55;1.80;;;;;;;;;;5090994;28;20016;-48
2022/03/09 09:58:28;;;;;;;4.03;2.40;;;;;;;;;;5091809;28;20024;-52
2022/03/09 10:00:55;;;;;;;4.68;2.10;;;;;;;;;;5091340;28;20037;-50
2022/03/09 10:03:21;;;;;;;3.95;1.92;;;;;;;;;;5090809;28;20366;-50
2022/03/09 10:05:47;;;;;;;3.90;2.10;;;;;;;;;;5091421;28;20077;-51
2022/03/09 10:08:15;;;;;;;3.50;2.10;;;;;;;;;;5090719;28;20107;-50
2022/03/09 10:10:43;;;;;;;5.18;2.00;;;;;;;;;;5091636;28;20022;-50
2022/03/09 10:13:14;;;;;;;2.53;1.90;;;;;;;;;;5078696;28;20028;-49
2022/03/09 10:15:41;;;;;;;2.95;2.15;;;;;;;;;;5070925;28;20098;-51
2022/03/09 10:18:20;;;;;;;4.40;2.58;;;;;;;;;;5070539;28;20064;-53
2022/03/09 10:20:47;;;;;;;3.63;2.13;;;;;;;;;;5071493;28;20103;-52
2022/03/09 10:23:14;;;;;;;4.03;2.55;;;;;;;;;;5052856;28;20107;-48
2022/03/09 10:25:40;;;;;;;2.38;1.75;;;;;;;;;;5071237;28;20067;-51
2022/03/09 10:28:07;;;;;;;4.13;1.80;;;;;;;;;;5070422;28;20048;-50
2022/03/09 10:30:34;;;;;;;2.88;1.83;;;;;;;;;;5071035;28;20075;-51
2022/03/09 10:33:01;;;;;;;3.03;1.90;;;;;;;;;;5070990;28;20031;-47
2022/03/09 10:35:30;;;;;;;2.70;1.83;;;;;;;;;;5070685;28;20480;-51
2022/03/09 10:37:58;;;;;;;2.50;1.80;;;;;;;;;;5071147;28;20404;-52
2022/03/09 10:40:24;;;;;;;3.38;2.05;;;;;;;;;;5070438;28;20032;-48
2022/03/09 10:42:50;;;;;;;7.75;2.47;;;;;;;;;;5071146;28;20025;-50
2022/03/09 10:45:17;;;;;;;3.53;2.20;;;;;;;;;;5087789;28;20073;-52
2022/03/09 10:47:43;;;;;;;2.45;2.00;;;;;;;;;;5091120;28;20155;-48
2022/03/09 10:50:15;;;;;;;3.88;2.65;;;;;;;;;;5090342;28;20540;-52
2022/03/09 10:52:41;;;;;;;6.40;2.15;;;;;;;;;;5091259;28;20063;-50
2022/03/09 10:55:20;;;;;;;3.10;2.10;;;;;;;;;;5091300;28;20020;-49
2022/03/09 10:57:46;;;;;;;2.50;1.70;;;;;;;;;;5082141;28;20496;-49
2022/03/09 11:00:13;;;;;;;2.38;2.13;;;;;;;;;;5084528;28;20059;-48
2022/03/09 11:02:52;;;;;;;3.00;1.85;;;;;;;;;;5094807;28;20098;-52
2022/03/09 11:05:20;;;;;;;3.65;1.98;;;;;;;;;;5093803;28;20070;-49
2022/03/09 11:07:47;;;;;;;4.63;2.05;;;;;;;;;;5076495;28;20365;-48
2022/03/09 11:10:13;;;;;;;3.58;2.25;;;;;;;;;;5094034;28;20036;-48
2022/03/09 11:12:39;;;;;;;2.08;1.63;;;;;;;;;;5094911;28;20086;-52
2022/03/09 11:15:06;;;;;;;3.63;2.13;;;;;;;;;;5093432;28;20028;-49
2022/03/09 11:17:33;;;;;;;2.33;1.88;;;;;;;;;;5094854;28;20067;-52
2022/03/09 11:19:59;;;;;;;2.70;1.77;;;;;;;;;;5094556;28;20028;-49
2022/03/09 11:22:25;;;;;;;6.32;2.20;;;;;;;;;;5093569;28;20031;-48
2022/03/09 11:24:53;;;;;;;4.43;2.35;;;;;;;;;;5094514;28;20024;-49
2022/03/09 11:27:19;;;;;;;4.75;2.88;;;;;;;;;;5093558;28;20077;-51
2022/03/09 11:29:45;;;;;;;3.33;2.28;;;;;;;;;;5093558;28;20071;-50
2022/03/09 11:32:14;;;;;;;2.72;2.10;;;;;;;;;;5093198;28;20391;-52
2022/03/09 11:34:43;;;;;;;2.72;1.98;;;;;;;;;;5094466;28;20016;-52
2022/03/09 11:37:16;;;;;;;3.05;2.15;;;;;;;;;;5093706;28;20021;-51
2022/03/09 11:39:43;;;;;;;3.08;2.72;;;;;;;;;;5094417;28;20031;-51
2022/03/09 11:42:21;;;;;;;3.03;2.22;;;;;;;;;;5093567;28;20031;-49
2022/03/09 11:44:51;;;;;;;4.15;2.10;;;;;;;;;;5080856;28;20454;-49
2022/03/09 11:47:18;;;;;;;2.45;1.90;;;;;;;;;;5073271;28;20106;-51
2022/03/09 11:49:49;;;;;;;3.55;2.20;;;;;;;;;;5073586;28;20039;-52
2022/03/09 11:52:25;;;;;;;3.33;2.50;;;;;;;;;;5072964;28;20023;-51
2022/03/09 11:55:00;;;;;;;3.58;2.08;;;;;;;;;;5073736;28;20244;-48
2022/03/09 11:57:44;;;;;;;3.63;2.10;;;;;;;;;;5072995;28;20013;-50
2022/03/09 12:00:12;;;;;;;2.90;2.20;;;;;;;;;;5072828;28;20032;-50
2022/03/09 12:02:48;;;;;;;3.13;1.80;;;;;;;;;;5090843;28;20423;-52
2022/03/09 12:05:26;;;;;;;5.18;3.33;;;;;;;;;;5092991;28;20338;-52
2022/03/09 12:07:53;;;;;;;3.42;2.35;;;;;;;;;;5092860;28;20028;-50
2022/03/09 12:10:21;;;;;;;3.22;2.53;;;;;;;;;;5092018;28;20425;-53
2022/03/09 12:13:06;;;;;;;2.80;2.08;;;;;;;;;;5093456;28;20372;-50
2022/03/09 12:15:36;;;;;;;3.03;2.10;;;;;;;;;;5093420;28;20421;-52
2022/03/09 12:18:22;;;;;;;5.07;2.28;;;;;;;;;;5093505;28;20035;-52
2022/03/09 12:20:49;;;;;;;5.20;2.55;;;;;;;;;;5093522;28;20039;-51
2022/03/09 12:23:16;;;;;;;3.15;1.83;;;;;;;;;;5092868;28;20027;-53
2022/03/09 12:25:43;;;;;;;5.15;2.58;;;;;;;;;;5093087;28;20354;-52
2022/03/09 12:30:56;;;;;;;3.23;2.00;;;;;;;;;;5093239;28;20044;-50
2022/03/09 12:33:22;;;;;;;4.03;1.90;;;;;;;;;;5092182;28;20400;-51
2022/03/09 12:35:48;;;;;;;2.90;1.90;;;;;;;;;;5093228;28;20060;-50
2022/03/09 12:38:14;;;;;;;5.88;2.88;;;;;;;;;;5092029;28;20493;-51
2022/03/09 12:40:40;;;;;;;2.35;1.67;;;;;;;;;;5093130;28;20063;-53
2022/03/09 12:43:07;;;;;;;3.85;2.25;;;;;;;;;;5090923;28;20095;-49
2022/03/09 12:45:51;;;;;;;3.08;1.98;;;;;;;;;;5073686;28;20024;-51
2022/03/09 12:48:21;;;;;;;2.20;1.63;;;;;;;;;;5072963;28;20028;-49
2022/03/09 12:50:47;;;;;;;2.65;1.80;;;;;;;;;;5072461;28;20367;-48
2022/03/09 12:53:18;;;;;;;4.05;2.17;;;;;;;;;;5071584;28;20031;-49
2022/03/09 12:55:44;;;;;;;5.55;2.75;;;;;;;;;;5072572;28;20025;-53
2022/03/09 12:58:10;;;;;;;3.97;1.90;;;;;;;;;;5071676;28;20104;-49
2022/03/09 13:00:36;;;;;;;2.17;1.70;;;;;;;;;;5072571;28;20028;-52
2022/03/09 13:03:02;;;;;;;3.70;1.88;;;;;;;;;;5072579;28;20024;-53
2022/03/09 13:05:29;;;;;;;2.53;2.03;;;;;;;;;;5071727;28;20077;-48
2022/03/09 13:07:59;;;;;;;3.05;2.20;;;;;;;;;;5072292;28;20035;-51
2022/03/09 13:10:26;;;;;;;2.97;1.88;;;;;;;;;;5071175;28;20060;-50
2022/03/09 13:12:53;;;;;;;2.90;1.90;;;;;;;;;;5072366;28;20047;-52
2022/03/09 13:15:19;;;;;;;2.58;2.25;;;;;;;;;;5071318;28;20044;-50
2022/03/09 13:17:47;;;;;;;2.55;1.80;;;;;;;;;;5071912;28;20104;-52
2022/03/09 13:20:14;;;;;;;2.85;2.25;;;;;;;;;;5070846;28;20035;-50
2022/03/09 13:22:41;;;;;;;2.70;1.63;;;;;;;;;;5054213;28;20385;-52
2022/03/09 13:25:07;;;;;;;3.35;1.90;;;;;;;;;;5071876;28;20111;-47
2022/03/09 13:27:34;;;;;;;3.30;1.98;;;;;;;;;;5071676;28;20228;-51
2022/03/09 13:30:10;;;;;;;3.63;2.25;;;;;;;;;;5071855;28;20036;-52
2022/03/09 13:32:37;;;;;;;2.83;2.20;;;;;;;;;;5071918;28;20079;-50
2022/03/09 13:35:03;;;;;;;4.00;2.55;;;;;;;;;;5091295;28;20024;-52
2022/03/09 13:37:33;;;;;;;2.80;2.13;;;;;;;;;;5091330;28;20035;-50
2022/03/09 13:40:00;;;;;;;2.40;1.73;;;;;;;;;;5090298;28;20023;-47
2022/03/09 13:42:27;;;;;;;4.28;2.00;;;;;;;;;;5087759;28;20031;-52
2022/03/09 13:45:09;;;;;;;2.47;2.20;;;;;;;;;;5078193;28;20363;-49
2022/03/09 13:47:58;;;;;;;1.83;1.58;;;;;;;;;;5071715;28;20061;-53
2022/03/09 13:50:26;;;;;;;3.38;2.20;;;;;;;;;;5070879;28;20040;-48
2022/03/09 13:53:07;;;;;;;3.45;2.20;;;;;;;;;;5071719;28;20035;-51
2022/03/09 13:55:39;;;;;;;2.90;1.90;;;;;;;;;;5071038;28;20025;-50
2022/03/09 13:58:06;;;;;;;3.03;2.13;;;;;;;;;;5071491;28;20362;-49
2022/03/09 14:00:36;;;;;;;3.15;2.30;;;;;;;;;;5069837;28;20043;-51
2022/03/09 14:03:24;;;;;;;3.20;2.30;;;;;;;;;;5070448;28;20027;-52
2022/03/09 14:05:51;;;;;;;2.60;1.80;;;;;;;;;;5068903;28;20054;-51
2022/03/09 14:08:26;;;;;;;5.07;2.10;;;;;;;;;;5069529;28;20035;-52
2022/03/09 14:10:52;;;;;;;3.00;2.00;;;;;;;;;;5077599;28;20515;-51
2022/03/09 14:13:18;;;;;;;2.58;1.70;;;;;;;;;;5081331;28;20095;-49
2022/03/09 14:15:47;;;;;;;2.97;2.22;;;;;;;;;;5081129;28;20071;-52
2022/03/09 14:18:13;;;;;;;3.67;2.13;;;;;;;;;;5079020;28;20028;-51
2022/03/09 14:20:40;;;;;;;3.85;2.35;;;;;;;;;;5076590;28;20033;-52
2022/03/09 14:23:07;;;;;;;2.65;2.03;;;;;;;;;;5074362;28;20508;-49
2022/03/09 14:25:34;;;;;;;3.05;2.20;;;;;;;;;;5082354;28;20035;-49
2022/03/09 14:28:00;;;;;;;2.22;2.03;;;;;;;;;;5079875;28;20029;-54
2022/03/09 14:30:26;;;;;;;4.13;2.20;;;;;;;;;;5092208;28;20031;-53
2022/03/09 14:32:52;;;;;;;2.45;2.20;;;;;;;;;;5095728;28;20416;-52
2022/03/09 14:35:18;;;;;;;4.03;2.08;;;;;;;;;;5094907;28;20069;-49
2022/03/09 14:37:52;;;;;;;2.90;2.00;;;;;;;;;;5095390;28;20039;-52
2022/03/09 14:40:19;;;;;;;3.05;2.00;;;;;;;;;;5085398;28;20025;-51
2022/03/09 14:42:45;;;;;;;3.60;2.40;;;;;;;;;;5075122;28;20028;-51
2022/03/09 14:45:14;;;;;;;7.70;4.45;;;;;;;;;;5090897;28;20469;-49